createdAt,value
2019-06-10T00:02:23.459Z,23.47
2019-06-10T00:04:57.616Z,23.47
2019-06-10T00:07:31.611Z,23.47
2019-06-10T00:10:10.637Z,23.47
2019-06-10T00:12:42.962Z,23.47
2019-06-10T00:15:21.412Z,23.48
2019-06-10T00:18:16.208Z,23.50
2019-06-10T00:20:30.598Z,23.49
2019-06-10T00:23:05.316Z,23.45
2019-06-10T00:25:40.577Z,23.45
2019-06-10T00:28:13.374Z,23.41
2019-06-10T00:30:47.331Z,23.41
2019-06-10T00:33:21.578Z,23.37
2019-06-10T00:35:53.928Z,23.36
2019-06-10T00:38:26.921Z,23.35
2019-06-10T00:41:02.320Z,23.34
2019-06-10T00:43:35.976Z,23.32
2019-06-10T00:46:09.571Z,23.25
2019-06-10T00:48:43.056Z,23.22
2019-06-10T00:51:16.171Z,23.17
2019-06-10T00:53:51.444Z,23.13
2019-06-10T00:56:24.209Z,23.10
2019-06-10T00:58:57.258Z,23.07
2019-06-10T01:01:31.240Z,23.05
2019-06-10T01:04:06.934Z,23.02
2019-06-10T01:06:42.301Z,22.98
2019-06-10T01:09:16.944Z,22.91
2019-06-10T01:11:52.001Z,22.88
2019-06-10T01:14:25.345Z,22.86
2019-06-10T01:16:58.506Z,22.87
2019-06-10T01:19:32.672Z,22.88
2019-06-10T01:22:06.087Z,22.84
2019-06-10T01:24:40.789Z,22.80
2019-06-10T01:27:15.080Z,22.77
2019-06-10T01:29:51.072Z,22.76
2019-06-10T01:32:24.047Z,22.70
2019-06-10T01:34:57.359Z,22.67
2019-06-10T01:37:31.080Z,22.60
2019-06-10T01:40:07.955Z,22.56
2019-06-10T01:42:41.397Z,22.54
2019-06-10T01:45:15.883Z,22.50
2019-06-10T01:47:51.092Z,22.48
2019-06-10T01:50:24.215Z,22.49
2019-06-10T01:52:57.380Z,22.49
2019-06-10T01:55:31.213Z,22.47
2019-06-10T01:58:04.325Z,22.47
2019-06-10T02:00:58.053Z,22.46
2019-06-10T02:03:31.613Z,22.44
2019-06-10T02:06:05.902Z,22.47
2019-06-10T02:08:41.679Z,22.50
2019-06-10T02:11:16.010Z,22.50
2019-06-10T02:13:51.520Z,22.54
2019-06-10T02:16:25.865Z,22.56
2019-06-10T02:19:03.387Z,22.55
2019-06-10T02:21:34.943Z,22.54
2019-06-10T02:24:12.555Z,22.49
2019-06-10T02:26:43.005Z,22.50
2019-06-10T02:29:17.242Z,22.49
2019-06-10T02:31:52.157Z,22.53
2019-06-10T02:34:27.542Z,22.54
2019-06-10T02:37:04.345Z,22.50
2019-06-10T02:39:38.929Z,22.50
2019-06-10T02:42:21.241Z,22.50
2019-06-10T02:44:54.109Z,22.48
2019-06-10T02:47:33.601Z,22.48
2019-06-10T02:50:08.821Z,22.46
2019-06-10T02:52:44.078Z,22.45
2019-06-10T02:55:17.457Z,22.43
2019-06-10T02:57:53.108Z,22.42
2019-06-10T03:00:37.012Z,22.42
2019-06-10T03:03:00.042Z,22.44
2019-06-10T03:05:40.503Z,22.46
2019-06-10T03:08:09.035Z,22.50
2019-06-10T03:10:44.242Z,22.55
2019-06-10T03:13:17.628Z,22.60
2019-06-10T03:15:54.914Z,22.62
2019-06-10T03:18:28.200Z,22.63
2019-06-10T03:21:02.643Z,22.63
2019-06-10T03:23:35.856Z,22.61
2019-06-10T03:26:08.921Z,22.61
2019-06-10T03:28:42.888Z,22.60
2019-06-10T03:31:18.764Z,22.58
2019-06-10T03:33:54.416Z,22.60
2019-06-10T03:36:27.327Z,22.60
2019-06-10T03:39:02.434Z,22.63
2019-06-10T03:41:36.181Z,22.67
2019-06-10T03:44:09.194Z,22.75
2019-06-10T03:46:43.144Z,22.80
2019-06-10T03:49:17.149Z,22.84
2019-06-10T03:51:50.301Z,22.89
2019-06-10T03:54:27.313Z,22.93
2019-06-10T03:56:58.305Z,22.99
2019-06-10T03:59:32.445Z,23.06
2019-06-10T04:02:06.740Z,23.12
2019-06-10T04:04:39.932Z,23.18
2019-06-10T04:07:14.271Z,23.25
2019-06-10T04:09:46.670Z,23.26
2019-06-10T04:12:19.549Z,23.28
2019-06-10T04:14:52.813Z,23.35
2019-06-10T04:17:27.349Z,23.35
2019-06-10T04:20:09.397Z,23.37
2019-06-10T04:22:35.782Z,23.40
2019-06-10T04:25:08.887Z,23.42
2019-06-10T04:27:42.567Z,23.48
2019-06-10T04:30:17.104Z,23.53
2019-06-10T04:32:53.177Z,23.61
2019-06-10T04:35:27.952Z,23.68
2019-06-10T04:38:02.546Z,23.75
2019-06-10T04:40:35.816Z,23.78
2019-06-10T04:43:08.983Z,23.83
2019-06-10T04:45:43.017Z,23.89
2019-06-10T04:48:16.267Z,23.92
2019-06-10T04:50:49.351Z,23.94
2019-06-10T04:53:23.759Z,23.95
2019-06-10T04:55:57.529Z,23.98
2019-06-10T04:58:33.081Z,24.07
2019-06-10T05:01:05.554Z,24.12
2019-06-10T05:03:38.702Z,24.14
2019-06-10T05:06:12.373Z,24.17
2019-06-10T05:08:48.278Z,24.22
2019-06-10T05:11:24.261Z,24.26
2019-06-10T05:13:57.250Z,24.29
2019-06-10T05:16:32.355Z,24.35
2019-06-10T05:19:06.899Z,24.35
2019-06-10T05:21:42.182Z,24.36
2019-06-10T05:24:15.913Z,24.42
2019-06-10T05:26:48.326Z,24.49
2019-06-10T05:29:23.522Z,24.53
2019-06-10T05:31:56.835Z,24.63
2019-06-10T05:34:34.334Z,24.65
2019-06-10T05:37:06.458Z,24.71
2019-06-10T05:39:42.265Z,24.77
2019-06-10T05:42:14.306Z,24.86
2019-06-10T05:44:47.480Z,24.96
2019-06-10T05:47:23.355Z,25.00
2019-06-10T05:49:55.386Z,25.07
2019-06-10T05:52:45.865Z,25.10
2019-06-10T05:55:19.234Z,25.14
2019-06-10T05:57:54.636Z,25.23
2019-06-10T06:00:29.344Z,25.33
2019-06-10T06:03:04.485Z,25.41
2019-06-10T06:05:38.096Z,25.47
2019-06-10T06:08:12.552Z,25.59
2019-06-10T06:10:45.772Z,25.64
2019-06-10T06:13:19.995Z,25.66
2019-06-10T06:15:52.905Z,25.69
2019-06-10T06:18:25.943Z,25.74
2019-06-10T06:21:20.104Z,25.85
2019-06-10T06:23:37.086Z,25.94
2019-06-10T06:26:15.855Z,26.04
2019-06-10T06:28:45.613Z,26.13
2019-06-10T06:31:18.726Z,26.15
2019-06-10T06:33:52.644Z,26.18
2019-06-10T06:36:26.594Z,26.09
2019-06-10T06:39:02.173Z,26.13
2019-06-10T06:41:37.628Z,26.18
2019-06-10T06:44:12.965Z,26.31
2019-06-10T06:46:45.948Z,26.43
2019-06-10T06:49:19.081Z,26.51
2019-06-10T06:51:58.308Z,26.59
2019-06-10T06:54:27.038Z,26.70
2019-06-10T06:57:03.280Z,26.72
2019-06-10T06:59:37.369Z,26.60
2019-06-10T07:02:12.487Z,26.46
2019-06-10T07:04:45.604Z,26.58
2019-06-10T07:07:18.674Z,26.75
2019-06-10T07:09:52.675Z,26.84
2019-06-10T07:12:25.869Z,26.96
2019-06-10T07:14:59.048Z,27.10
2019-06-10T07:17:34.587Z,27.21
2019-06-10T07:20:07.907Z,27.33
2019-06-10T07:22:46.549Z,27.42
2019-06-10T07:25:22.850Z,27.34
2019-06-10T07:27:55.010Z,27.18
2019-06-10T07:30:28.391Z,27.12
2019-06-10T07:33:02.957Z,27.03
2019-06-10T07:35:37.296Z,27.11
2019-06-10T07:38:12.203Z,27.23
2019-06-10T07:40:46.281Z,27.32
2019-06-10T07:43:19.520Z,27.47
2019-06-10T07:45:53.423Z,27.65
2019-06-10T07:48:26.726Z,27.70
2019-06-10T07:51:02.573Z,27.69
2019-06-10T07:53:36.510Z,27.52
2019-06-10T07:56:12.889Z,27.40
2019-06-10T07:58:47.697Z,27.40
2019-06-10T08:01:23.062Z,27.58
2019-06-10T08:03:55.835Z,27.77
2019-06-10T08:06:29.037Z,27.98
2019-06-10T08:09:02.373Z,28.31
2019-06-10T08:11:39.327Z,28.44
2019-06-10T08:14:13.113Z,28.30
2019-06-10T08:16:46.765Z,28.29
2019-06-10T08:19:31.510Z,28.23
2019-06-10T08:21:56.357Z,28.23
2019-06-10T08:24:29.699Z,28.13
2019-06-10T08:27:04.424Z,28.29
2019-06-10T08:29:38.667Z,28.45
2019-06-10T08:32:13.099Z,28.59
2019-06-10T08:34:48.030Z,28.73
2019-06-10T08:37:23.462Z,28.75
2019-06-10T08:39:56.781Z,28.68
2019-06-10T08:42:32.247Z,28.69
2019-06-10T08:45:05.115Z,28.96
2019-06-10T08:47:39.280Z,29.55
2019-06-10T08:50:12.946Z,30.34
2019-06-10T08:53:03.301Z,30.89
2019-06-10T08:55:23.716Z,31.26
2019-06-10T08:57:57.053Z,31.19
2019-06-10T09:00:30.195Z,31.31
2019-06-10T09:03:04.196Z,31.11
2019-06-10T09:05:38.775Z,30.84
2019-06-10T09:08:13.072Z,30.77
2019-06-10T09:10:49.864Z,31.00
2019-06-10T09:13:22.479Z,31.18
2019-06-10T09:16:11.113Z,31.19
2019-06-10T09:18:30.402Z,31.25
2019-06-10T09:21:05.181Z,31.37
2019-06-10T09:23:39.605Z,31.30
2019-06-10T09:26:13.410Z,31.44
2019-06-10T09:28:52.407Z,31.43
2019-06-10T09:31:23.863Z,31.30
2019-06-10T09:33:57.142Z,31.31
2019-06-10T09:36:32.400Z,31.09
2019-06-10T09:39:06.367Z,31.53
2019-06-10T09:41:43.121Z,31.53
2019-06-10T09:44:14.343Z,31.66
2019-06-10T09:46:50.409Z,32.10
2019-06-10T09:49:22.676Z,32.52
2019-06-10T09:51:57.610Z,32.71
2019-06-10T09:54:33.705Z,32.79
2019-06-10T09:57:06.970Z,32.55
2019-06-10T09:59:41.351Z,32.45
2019-06-10T10:02:15.160Z,32.57
2019-06-10T10:04:52.538Z,32.99
2019-06-10T10:07:23.669Z,33.60
2019-06-10T10:09:57.761Z,34.21
2019-06-10T10:12:32.711Z,34.64
2019-06-10T10:15:22.655Z,34.99
2019-06-10T10:17:47.436Z,35.33
2019-06-10T10:20:18.324Z,35.58
2019-06-10T10:22:55.125Z,35.84
2019-06-10T10:25:28.372Z,36.07
2019-06-10T10:28:03.201Z,36.20
2019-06-10T10:30:36.456Z,36.31
2019-06-10T10:33:12.661Z,36.31
2019-06-10T10:35:46.373Z,36.42
2019-06-10T10:38:22.887Z,36.50
2019-06-10T10:40:58.873Z,36.70
2019-06-10T10:43:34.094Z,36.82
2019-06-10T10:46:06.120Z,36.93
2019-06-10T10:48:39.403Z,37.00
2019-06-10T10:51:13.224Z,37.05
2019-06-10T10:53:51.476Z,37.10
2019-06-10T10:56:22.322Z,37.00
2019-06-10T10:58:58.533Z,37.03
2019-06-10T11:01:33.413Z,37.03
2019-06-10T11:04:06.758Z,37.04
2019-06-10T11:06:39.955Z,37.09
2019-06-10T11:09:13.238Z,37.11
2019-06-10T11:11:47.218Z,37.19
2019-06-10T11:14:22.879Z,37.35
2019-06-10T11:16:59.005Z,37.38
2019-06-10T11:19:33.013Z,37.40
2019-06-10T11:22:06.184Z,37.36
2019-06-10T11:24:42.075Z,37.38
2019-06-10T11:27:14.341Z,37.37
2019-06-10T11:29:48.174Z,37.35
2019-06-10T11:32:21.176Z,37.39
2019-06-10T11:34:56.967Z,37.34
2019-06-10T11:37:29.174Z,37.38
2019-06-10T11:40:02.935Z,37.36
2019-06-10T11:42:36.052Z,37.12
2019-06-10T11:45:09.461Z,36.81
2019-06-10T11:47:42.705Z,36.57
2019-06-10T11:50:16.045Z,36.47
2019-06-10T11:52:49.692Z,36.46
2019-06-10T11:55:24.210Z,36.54
2019-06-10T11:57:58.173Z,36.70
2019-06-10T12:00:33.243Z,36.78
2019-06-10T12:03:07.383Z,36.87
2019-06-10T12:05:40.599Z,37.02
2019-06-10T12:08:13.832Z,37.06
2019-06-10T12:10:46.945Z,37.06
2019-06-10T12:13:22.460Z,37.17
2019-06-10T12:16:49.437Z,37.29
2019-06-10T12:18:29.829Z,37.28
2019-06-10T12:21:03.841Z,37.07
2019-06-10T12:23:37.079Z,36.85
2019-06-10T12:26:10.168Z,36.58
2019-06-10T12:28:43.424Z,36.57
2019-06-10T12:31:17.056Z,36.69
2019-06-10T12:33:50.584Z,36.67
2019-06-10T12:36:24.124Z,36.69
2019-06-10T12:39:02.444Z,36.81
2019-06-10T12:41:33.323Z,36.92
2019-06-10T12:44:06.695Z,37.13
2019-06-10T12:46:39.935Z,37.33
2019-06-10T12:49:18.318Z,37.32
2019-06-10T12:51:49.532Z,36.97
2019-06-10T12:54:22.670Z,36.83
2019-06-10T12:56:58.063Z,36.72
2019-06-10T12:59:32.463Z,36.67
2019-06-10T13:02:18.196Z,36.79
2019-06-10T13:04:42.879Z,36.97
2019-06-10T13:07:16.155Z,37.05
2019-06-10T13:09:48.554Z,37.09
2019-06-10T13:12:22.953Z,37.16
2019-06-10T13:14:56.342Z,37.16
2019-06-10T13:17:29.418Z,37.14
2019-06-10T13:20:06.170Z,36.99
2019-06-10T13:22:37.466Z,37.04
2019-06-10T13:25:13.347Z,37.03
2019-06-10T13:27:45.710Z,37.11
2019-06-10T13:30:19.133Z,37.20
2019-06-10T13:32:52.755Z,37.18
2019-06-10T13:35:25.824Z,37.19
2019-06-10T13:37:59.086Z,37.33
2019-06-10T13:40:32.238Z,37.21
2019-06-10T13:43:06.027Z,36.43
2019-06-10T13:45:39.364Z,36.43
2019-06-10T13:48:14.974Z,36.37
2019-06-10T13:50:47.360Z,36.34
2019-06-10T13:53:20.577Z,36.43
2019-06-10T13:56:14.358Z,36.56
2019-06-10T13:58:28.460Z,36.68
2019-06-10T14:01:04.647Z,36.93
2019-06-10T14:03:36.543Z,37.17
2019-06-10T14:06:28.408Z,37.26
2019-06-10T14:08:46.033Z,37.30
2019-06-10T14:11:19.599Z,37.28
2019-06-10T14:13:53.928Z,37.10
2019-06-10T14:16:27.003Z,36.86
2019-06-10T14:19:01.438Z,36.62
2019-06-10T14:21:34.801Z,36.36
2019-06-10T14:24:08.235Z,36.08
2019-06-10T14:26:45.452Z,35.82
2019-06-10T14:29:17.464Z,35.53
2019-06-10T14:31:53.064Z,35.32
2019-06-10T14:34:25.531Z,35.18
2019-06-10T14:36:58.603Z,35.04
2019-06-10T14:39:32.949Z,34.88
2019-06-10T14:42:06.958Z,34.78
2019-06-10T14:44:42.107Z,34.67
2019-06-10T14:47:16.871Z,34.57
2019-06-10T14:49:50.146Z,34.48
2019-06-10T14:52:23.194Z,34.35
2019-06-10T14:54:57.650Z,34.26
2019-06-10T14:57:33.312Z,34.18
2019-06-10T15:00:07.626Z,34.12
2019-06-10T15:02:42.968Z,34.03
2019-06-10T15:05:17.545Z,33.90
2019-06-10T15:07:52.893Z,33.87
2019-06-10T15:10:25.688Z,33.88
2019-06-10T15:12:58.876Z,33.87
2019-06-10T15:15:33.036Z,33.86
2019-06-10T15:18:07.654Z,33.86
2019-06-10T15:20:45.244Z,33.84
2019-06-10T15:23:19.125Z,33.79
2019-06-10T15:25:57.033Z,33.73
2019-06-10T15:28:29.031Z,33.60
2019-06-10T15:31:03.022Z,33.51
2019-06-10T15:33:37.155Z,33.42
2019-06-10T15:36:11.212Z,33.30
2019-06-10T15:38:44.407Z,33.22
2019-06-10T15:41:19.929Z,33.14
2019-06-10T15:43:55.417Z,33.08
2019-06-10T15:46:32.234Z,33.04
2019-06-10T15:49:04.893Z,32.97
2019-06-10T15:51:37.933Z,32.91
2019-06-10T15:54:15.355Z,32.81
2019-06-10T15:56:52.674Z,32.77
2019-06-10T15:59:21.461Z,32.71
2019-06-10T16:01:54.051Z,32.63
2019-06-10T16:04:29.766Z,32.57
2019-06-10T16:07:02.530Z,32.51
2019-06-10T16:09:35.949Z,32.44
2019-06-10T16:12:09.058Z,32.40
2019-06-10T16:14:42.535Z,32.38
2019-06-10T16:17:17.364Z,32.34
2019-06-10T16:19:52.999Z,32.30
2019-06-10T16:22:26.330Z,32.26
2019-06-10T16:24:59.427Z,32.20
2019-06-10T16:27:46.367Z,32.16
2019-06-10T16:30:09.523Z,32.10
2019-06-10T16:32:46.173Z,32.06
2019-06-10T16:35:18.840Z,32.01
2019-06-10T16:37:54.573Z,31.96
2019-06-10T16:40:27.287Z,31.92
2019-06-10T16:43:00.446Z,31.86
2019-06-10T16:45:34.503Z,31.78
2019-06-10T16:48:07.675Z,31.76
2019-06-10T16:50:42.607Z,31.70
2019-06-10T16:53:15.579Z,31.65
2019-06-10T16:55:48.660Z,31.61
2019-06-10T16:58:26.201Z,31.57
2019-06-10T17:00:56.601Z,31.54
2019-06-10T17:03:31.356Z,31.50
2019-06-10T17:06:05.106Z,31.45
2019-06-10T17:08:39.323Z,31.41
2019-06-10T17:11:12.614Z,31.31
2019-06-10T17:13:45.767Z,31.33
2019-06-10T17:16:20.216Z,31.26
2019-06-10T17:18:53.754Z,31.23
2019-06-10T17:21:30.403Z,31.20
2019-06-10T17:24:03.446Z,31.14
2019-06-10T17:26:38.296Z,31.10
2019-06-10T17:29:11.316Z,30.91
2019-06-10T17:31:44.514Z,30.98
2019-06-10T17:34:20.533Z,30.94
2019-06-10T17:36:53.772Z,30.90
2019-06-10T17:39:28.611Z,30.86
2019-06-10T17:42:01.932Z,30.83
2019-06-10T17:44:35.050Z,30.77
2019-06-10T17:47:08.196Z,30.73
2019-06-10T17:49:41.984Z,30.71
2019-06-10T17:52:15.225Z,30.68
2019-06-10T17:54:48.555Z,30.67
2019-06-10T17:57:23.508Z,30.63
2019-06-10T17:59:56.441Z,30.58
2019-06-10T18:02:29.580Z,30.53
2019-06-10T18:05:05.884Z,30.47
2019-06-10T18:07:39.041Z,30.44
2019-06-10T18:10:13.242Z,30.40
2019-06-10T18:12:46.504Z,30.37
2019-06-10T18:15:22.079Z,30.32
2019-06-10T18:17:55.956Z,30.26
2019-06-10T18:20:29.046Z,30.22
2019-06-10T18:23:02.733Z,30.16
2019-06-10T18:25:36.897Z,30.13
2019-06-10T18:28:09.214Z,30.11
2019-06-10T18:30:43.484Z,30.06
2019-06-10T18:33:16.835Z,30.03
2019-06-10T18:35:50.038Z,29.99
2019-06-10T18:38:23.390Z,29.94
2019-06-10T18:40:56.591Z,29.91
2019-06-10T18:43:32.132Z,29.85
2019-06-10T18:46:04.819Z,29.79
2019-06-10T18:48:38.562Z,29.69
2019-06-10T18:51:12.688Z,29.62
2019-06-10T18:53:45.871Z,29.59
2019-06-10T18:56:19.130Z,29.54
2019-06-10T18:58:53.052Z,29.48
2019-06-10T19:01:26.295Z,29.41
2019-06-10T19:03:59.420Z,29.36
2019-06-10T19:06:33.850Z,29.28
2019-06-10T19:09:08.831Z,29.23
2019-06-10T19:11:43.386Z,29.18
2019-06-10T19:14:17.665Z,29.15
2019-06-10T19:16:52.434Z,29.14
2019-06-10T19:19:25.553Z,29.10
2019-06-10T19:22:05.171Z,29.08
2019-06-10T19:24:36.324Z,29.00
2019-06-10T19:27:08.497Z,28.94
2019-06-10T19:29:50.773Z,28.89
2019-06-10T19:32:17.916Z,28.86
2019-06-10T19:34:52.084Z,28.76
2019-06-10T19:37:24.557Z,28.69
2019-06-10T19:39:57.569Z,28.60
2019-06-10T19:42:32.962Z,28.53
2019-06-10T19:45:07.567Z,28.45
2019-06-10T19:47:41.404Z,28.42
2019-06-10T19:50:15.349Z,28.40
2019-06-10T19:52:48.421Z,28.37
2019-06-10T19:55:23.344Z,28.30
2019-06-10T19:57:56.533Z,28.28
2019-06-10T20:00:29.957Z,28.28
2019-06-10T20:03:03.178Z,28.25
2019-06-10T20:05:38.019Z,28.21
2019-06-10T20:08:12.127Z,28.21
2019-06-10T20:10:44.632Z,28.21
2019-06-10T20:13:18.611Z,28.20
2019-06-10T20:15:52.496Z,28.17
2019-06-10T20:18:25.711Z,28.17
2019-06-10T20:20:58.775Z,28.12
2019-06-10T20:23:33.323Z,28.07
2019-06-10T20:26:06.535Z,28.01
2019-06-10T20:28:40.683Z,27.95
2019-06-10T20:31:14.380Z,27.89
2019-06-10T20:33:47.673Z,27.83
2019-06-10T20:36:25.671Z,27.77
2019-06-10T20:38:55.626Z,27.75
2019-06-10T20:41:28.752Z,27.72
2019-06-10T20:44:03.759Z,27.69
2019-06-10T20:46:36.890Z,27.61
2019-06-10T20:49:09.964Z,27.56
2019-06-10T20:52:00.578Z,27.49
2019-06-10T20:54:17.895Z,27.46
2019-06-10T20:56:53.367Z,27.43
2019-06-10T20:59:26.302Z,27.41
2019-06-10T21:01:59.431Z,27.36
2019-06-10T21:04:32.618Z,27.35
2019-06-10T21:07:05.813Z,27.28
2019-06-10T21:09:40.064Z,27.20
2019-06-10T21:12:13.321Z,27.15
2019-06-10T21:14:47.223Z,27.11
2019-06-10T21:17:22.962Z,27.05
2019-06-10T21:19:56.169Z,27.05
2019-06-10T21:22:32.487Z,27.05
2019-06-10T21:25:05.456Z,27.06
2019-06-10T21:27:38.674Z,27.06
2019-06-10T21:30:13.496Z,27.06
2019-06-10T21:32:48.681Z,27.06
2019-06-10T21:35:22.136Z,27.00
2019-06-10T21:37:55.242Z,26.91
2019-06-10T21:40:28.424Z,26.83
2019-06-10T21:43:02.813Z,26.74
2019-06-10T21:45:36.240Z,26.68
2019-06-10T21:48:09.567Z,26.62
2019-06-10T21:50:45.236Z,26.58
2019-06-10T21:53:17.914Z,26.57
2019-06-10T21:55:53.537Z,26.49
2019-06-10T21:58:26.239Z,26.42
2019-06-10T22:01:11.633Z,26.34
2019-06-10T22:03:34.250Z,26.28
2019-06-10T22:06:07.374Z,26.22
2019-06-10T22:08:42.486Z,26.17
2019-06-10T22:11:15.203Z,26.16
2019-06-10T22:13:50.767Z,26.15
2019-06-10T22:16:24.561Z,26.13
2019-06-10T22:18:57.764Z,26.07
2019-06-10T22:21:32.589Z,26.03
2019-06-10T22:24:05.836Z,26.00
2019-06-10T22:26:38.971Z,25.91
2019-06-10T22:29:12.650Z,25.85
2019-06-10T22:31:47.173Z,25.76
2019-06-10T22:34:22.765Z,25.68
2019-06-10T22:36:56.188Z,25.64
2019-06-10T22:39:29.756Z,25.63
2019-06-10T22:42:03.249Z,25.61
2019-06-10T22:44:36.315Z,25.56
2019-06-10T22:47:09.357Z,25.47
2019-06-10T22:49:43.252Z,25.37
2019-06-10T22:52:16.449Z,25.34
2019-06-10T22:54:49.720Z,25.35
2019-06-10T22:57:22.762Z,25.32
2019-06-10T22:59:57.388Z,25.29
2019-06-10T23:02:33.219Z,25.25
2019-06-10T23:05:07.501Z,25.24
2019-06-10T23:07:40.711Z,25.21
2019-06-10T23:10:13.861Z,25.15
2019-06-10T23:12:46.965Z,25.10
2019-06-10T23:15:20.125Z,25.05
2019-06-10T23:17:55.427Z,24.98
2019-06-10T23:20:28.071Z,24.96
2019-06-10T23:23:03.162Z,24.95
2019-06-10T23:25:35.954Z,24.92
2019-06-10T23:28:09.148Z,24.92
2019-06-10T23:30:42.826Z,24.94
2019-06-10T23:33:16.417Z,24.97
2019-06-10T23:35:50.307Z,24.92
2019-06-10T23:38:23.746Z,24.90
2019-06-10T23:40:57.110Z,24.86
2019-06-10T23:43:30.218Z,24.81
2019-06-10T23:46:04.578Z,24.81
2019-06-10T23:48:37.735Z,24.74
2019-06-10T23:51:12.136Z,24.72
2019-06-10T23:53:46.820Z,24.70
2019-06-10T23:56:21.971Z,24.66
2019-06-10T23:58:58.393Z,24.64
